createdAt,value
2017-08-15T00:01:14.484Z,18.70
2017-08-15T00:03:41.989Z,18.70
2017-08-15T00:06:10.219Z,18.60
2017-08-15T00:08:37.697Z,18.60
2017-08-15T00:11:05.178Z,18.70
2017-08-15T00:13:33.461Z,18.60
2017-08-15T00:16:01.727Z,18.50
2017-08-15T00:18:30.001Z,18.60
2017-08-15T00:20:58.382Z,18.50
2017-08-15T00:23:26.663Z,18.50
2017-08-15T00:25:54.925Z,18.50
2017-08-15T00:28:22.491Z,18.50
2017-08-15T00:30:50.062Z,18.50
2017-08-15T00:33:18.329Z,18.50
2017-08-15T00:35:46.601Z,18.40
2017-08-15T00:38:14.884Z,18.40
2017-08-15T00:40:43.126Z,18.40
2017-08-15T00:43:10.711Z,18.40
2017-08-15T00:45:38.273Z,18.40
2017-08-15T00:48:05.846Z,18.30
2017-08-15T00:50:34.109Z,18.40
2017-08-15T00:53:01.672Z,18.40
2017-08-15T00:55:29.930Z,18.40
2017-08-15T00:57:57.415Z,18.40
2017-08-15T01:00:25.665Z,18.30
2017-08-15T01:02:53.229Z,18.30
2017-08-15T01:05:21.314Z,18.30
2017-08-15T01:07:48.879Z,18.20
2017-08-15T01:10:17.162Z,18.30
2017-08-15T01:12:45.431Z,18.20
2017-08-15T01:15:13.706Z,18.10
2017-08-15T01:17:41.982Z,18.20
2017-08-15T01:20:10.256Z,18.10
2017-08-15T01:22:38.552Z,18.10
2017-08-15T01:25:06.923Z,18.10
2017-08-15T01:27:35.179Z,18.00
2017-08-15T01:30:02.745Z,18.00
2017-08-15T01:32:30.989Z,18.00
2017-08-15T01:34:58.553Z,18.00
2017-08-15T01:37:26.043Z,18.00
2017-08-15T01:39:54.327Z,18.00
2017-08-15T01:42:22.596Z,17.90
2017-08-15T01:44:51.188Z,17.90
2017-08-15T01:47:19.438Z,17.80
2017-08-15T01:49:47.014Z,17.80
2017-08-15T01:52:14.577Z,17.80
2017-08-15T01:54:42.852Z,17.80
2017-08-15T01:57:11.111Z,17.90
2017-08-15T01:59:38.597Z,17.80
2017-08-15T02:02:06.863Z,17.70
2017-08-15T02:04:38.759Z,17.70
2017-08-15T02:07:06.281Z,17.70
2017-08-15T02:09:34.568Z,17.70
2017-08-15T02:12:02.839Z,17.60
2017-08-15T02:14:31.110Z,17.60
2017-08-15T02:16:59.389Z,17.60
2017-08-15T02:19:27.675Z,17.60
2017-08-15T02:21:55.230Z,17.60
2017-08-15T02:24:23.493Z,17.70
2017-08-15T02:26:51.032Z,17.70
2017-08-15T02:29:18.505Z,17.70
2017-08-15T02:31:45.981Z,17.70
2017-08-15T02:34:14.242Z,17.60
2017-08-15T02:36:41.778Z,17.60
2017-08-15T02:39:09.369Z,17.60
2017-08-15T02:41:36.929Z,17.60
2017-08-15T02:44:05.210Z,17.60
2017-08-15T02:46:33.483Z,17.60
2017-08-15T02:49:01.756Z,17.60
2017-08-15T02:51:30.020Z,17.50
2017-08-15T02:53:57.575Z,17.50
2017-08-15T02:56:25.056Z,17.60
2017-08-15T02:58:53.321Z,17.60
2017-08-15T03:01:20.793Z,17.60
2017-08-15T03:03:49.062Z,17.40
2017-08-15T03:06:17.338Z,17.50
2017-08-15T03:08:45.609Z,17.60
2017-08-15T03:11:13.887Z,17.60
2017-08-15T03:13:42.141Z,17.60
2017-08-15T03:16:09.607Z,17.50
2017-08-15T03:18:37.183Z,17.60
2017-08-15T03:21:05.415Z,17.60
2017-08-15T03:23:32.929Z,17.50
2017-08-15T03:26:01.300Z,17.50
2017-08-15T03:28:29.576Z,17.50
2017-08-15T03:30:57.858Z,17.50
2017-08-15T03:33:26.123Z,17.50
2017-08-15T03:35:53.685Z,17.50
2017-08-15T03:38:21.998Z,17.50
2017-08-15T03:40:49.521Z,17.50
2017-08-15T03:43:17.793Z,17.50
2017-08-15T03:45:46.055Z,17.50
2017-08-15T03:48:14.247Z,17.50
2017-08-15T03:50:42.519Z,17.60
2017-08-15T03:53:10.087Z,17.50
2017-08-15T03:55:38.335Z,17.50
2017-08-15T03:58:05.813Z,17.50
2017-08-15T04:00:34.089Z,17.60
2017-08-15T04:03:02.371Z,17.50
2017-08-15T04:05:30.624Z,17.50
2017-08-15T04:07:58.088Z,17.40
2017-08-15T04:10:35.862Z,17.50
2017-08-15T04:13:03.364Z,17.50
2017-08-15T04:15:31.735Z,17.50
2017-08-15T04:17:59.288Z,17.50
2017-08-15T04:20:26.856Z,17.50
2017-08-15T04:22:54.417Z,17.50
2017-08-15T04:25:22.697Z,17.50
2017-08-15T04:27:50.961Z,17.50
2017-08-15T04:30:18.445Z,17.50
2017-08-15T04:32:46.797Z,17.50
2017-08-15T04:35:14.385Z,17.50
2017-08-15T04:37:42.679Z,17.60
2017-08-15T04:40:10.203Z,17.50
2017-08-15T04:42:38.484Z,17.60
2017-08-15T04:45:06.755Z,17.60
2017-08-15T04:47:35.036Z,17.60
2017-08-15T04:50:03.282Z,17.60
2017-08-15T04:52:30.773Z,17.50
2017-08-15T04:54:59.050Z,17.60
2017-08-15T04:57:27.324Z,17.60
2017-08-15T04:59:54.910Z,17.60
2017-08-15T05:02:23.257Z,17.60
2017-08-15T05:04:51.503Z,17.60
2017-08-15T05:07:19.004Z,17.60
2017-08-15T05:09:47.269Z,17.60
2017-08-15T05:12:15.527Z,17.70
2017-08-15T05:14:43.070Z,17.70
2017-08-15T05:17:10.556Z,17.70
2017-08-15T05:19:38.861Z,17.80
2017-08-15T05:22:06.393Z,17.80
2017-08-15T05:24:34.675Z,17.90
2017-08-15T05:27:02.910Z,18.00
2017-08-15T05:29:30.413Z,18.00
2017-08-15T05:31:58.657Z,18.10
2017-08-15T05:34:26.243Z,18.10
2017-08-15T05:36:54.481Z,18.30
2017-08-15T05:39:21.984Z,18.30
2017-08-15T05:41:50.227Z,18.50
2017-08-15T05:44:17.814Z,18.50
2017-08-15T05:46:46.091Z,18.70
2017-08-15T05:49:14.340Z,18.80
2017-08-15T05:51:41.922Z,18.80
2017-08-15T05:54:09.489Z,18.90
2017-08-15T05:56:37.764Z,19.20
2017-08-15T05:59:06.037Z,19.30
2017-08-15T06:01:34.289Z,19.40
2017-08-15T06:04:01.783Z,19.40
2017-08-15T06:09:31.392Z,19.60
2017-08-15T06:11:58.953Z,19.80
2017-08-15T06:14:27.213Z,20.00
2017-08-15T06:16:54.789Z,20.00
2017-08-15T06:19:23.065Z,20.20
2017-08-15T06:21:51.319Z,20.20
2017-08-15T06:24:18.810Z,20.20
2017-08-15T06:26:47.078Z,20.40
2017-08-15T06:29:15.354Z,20.50
2017-08-15T06:31:43.610Z,20.60
2017-08-15T06:34:11.087Z,20.60
2017-08-15T06:36:39.350Z,20.70
2017-08-15T06:39:06.932Z,20.70
2017-08-15T06:41:36.131Z,20.90
2017-08-15T06:44:04.396Z,20.90
2017-08-15T06:46:32.668Z,21.00
2017-08-15T06:49:00.147Z,21.00
2017-08-15T06:51:28.416Z,21.00
2017-08-15T06:53:56.666Z,21.10
2017-08-15T07:09:31.110Z,21.00
2017-08-15T07:14:31.639Z,21.60
2017-08-15T07:16:59.917Z,21.70
2017-08-15T07:19:28.174Z,21.80
2017-08-15T07:21:55.654Z,21.80
2017-08-15T07:24:23.927Z,22.00
2017-08-15T07:26:51.440Z,22.00
2017-08-15T07:29:18.961Z,22.00
2017-08-15T07:31:47.205Z,22.20
2017-08-15T07:34:14.684Z,22.20
2017-08-15T07:36:42.926Z,22.40
2017-08-15T07:39:16.206Z,22.30
2017-08-15T07:41:43.693Z,22.40
2017-08-15T07:44:11.261Z,22.50
2017-08-15T07:46:38.729Z,22.50
2017-08-15T07:49:07.007Z,22.70
2017-08-15T07:51:35.282Z,22.80
2017-08-15T07:54:03.650Z,22.80
2017-08-15T07:56:31.216Z,22.80
2017-08-15T07:58:59.482Z,22.90
2017-08-15T08:01:27.051Z,22.90
2017-08-15T08:03:55.308Z,23.00
2017-08-15T08:06:22.782Z,23.00
2017-08-15T08:08:51.036Z,23.30
2017-08-15T08:11:18.521Z,23.30
2017-08-15T08:13:46.793Z,23.40
2017-08-15T08:16:15.081Z,23.50
2017-08-15T08:18:43.314Z,23.50
2017-08-15T08:21:10.797Z,23.40
2017-08-15T08:23:38.262Z,23.50
2017-08-15T08:26:06.535Z,23.70
2017-08-15T08:28:34.013Z,23.60
2017-08-15T08:31:01.537Z,23.70
2017-08-15T08:33:29.001Z,23.80
2017-08-15T08:35:56.568Z,23.90
2017-08-15T08:38:24.134Z,24.00
2017-08-15T08:40:52.409Z,24.10
2017-08-15T08:43:20.655Z,24.20
2017-08-15T08:45:48.136Z,24.20
2017-08-15T08:48:16.413Z,24.40
2017-08-15T08:50:44.695Z,24.50
2017-08-15T08:53:12.934Z,24.50
2017-08-15T08:55:40.423Z,24.50
2017-08-15T08:58:08.672Z,24.50
2017-08-15T09:00:36.157Z,24.50
2017-08-15T09:03:04.424Z,24.80
2017-08-15T09:05:31.990Z,24.70
2017-08-15T09:07:59.487Z,24.70
2017-08-15T09:10:26.956Z,24.80
2017-08-15T09:12:54.467Z,24.90
2017-08-15T09:15:22.719Z,25.00
2017-08-15T09:17:50.205Z,25.00
2017-08-15T09:20:18.440Z,25.20
2017-08-15T09:22:45.937Z,25.20
2017-08-15T09:25:13.390Z,25.30
2017-08-15T09:27:41.647Z,25.40
2017-08-15T09:30:09.133Z,25.30
2017-08-15T09:32:37.393Z,25.30
2017-08-15T09:35:04.885Z,25.30
2017-08-15T09:37:32.414Z,25.50
2017-08-15T09:40:00.020Z,25.60
2017-08-15T09:42:27.529Z,25.60
2017-08-15T09:44:55.100Z,25.60
2017-08-15T09:47:23.365Z,25.70
2017-08-15T09:49:50.842Z,25.70
2017-08-15T09:52:19.103Z,25.70
2017-08-15T09:54:46.674Z,25.70
2017-08-15T09:57:14.952Z,25.50
2017-08-15T09:59:43.187Z,25.40
2017-08-15T10:02:10.667Z,25.40
2017-08-15T10:04:38.237Z,25.40
2017-08-15T10:07:05.799Z,25.60
2017-08-15T10:09:34.062Z,26.00
2017-08-15T10:12:01.570Z,26.00
2017-08-15T10:14:29.086Z,26.20
2017-08-15T10:16:56.560Z,26.40
2017-08-15T10:19:24.800Z,26.70
2017-08-15T10:21:52.288Z,26.60
2017-08-15T10:24:20.524Z,26.90
2017-08-15T10:26:47.998Z,26.90
2017-08-15T10:29:15.485Z,26.80
2017-08-15T10:31:43.746Z,26.70
2017-08-15T10:34:11.319Z,26.70
2017-08-15T10:36:39.584Z,26.50
2017-08-15T10:39:07.863Z,26.50
2017-08-15T10:41:36.139Z,26.40
2017-08-15T10:44:04.379Z,26.40
2017-08-15T10:46:31.862Z,26.40
2017-08-15T10:48:59.452Z,26.50
2017-08-15T10:51:26.925Z,26.50
2017-08-15T10:53:54.447Z,26.50
2017-08-15T10:56:22.713Z,26.60
2017-08-15T10:58:50.181Z,26.60
2017-08-15T11:01:18.497Z,26.40
2017-08-15T11:03:45.988Z,26.40
2017-08-15T11:06:13.483Z,26.60
2017-08-15T11:08:41.745Z,27.00
2017-08-15T11:11:10.036Z,26.90
2017-08-15T11:13:38.299Z,26.90
2017-08-15T11:16:06.550Z,27.00
2017-08-15T11:18:34.140Z,27.00
2017-08-15T11:21:02.429Z,27.00
2017-08-15T11:23:30.686Z,26.80
2017-08-15T11:25:58.178Z,26.80
2017-08-15T11:28:25.712Z,26.60
2017-08-15T11:30:53.988Z,26.60
2017-08-15T11:33:22.241Z,26.70
2017-08-15T11:35:49.921Z,26.70
2017-08-15T11:38:18.186Z,27.20
2017-08-15T11:40:45.661Z,27.20
2017-08-15T11:43:13.931Z,27.50
2017-08-15T11:45:41.411Z,27.40
2017-08-15T11:48:08.889Z,27.60
2017-08-15T11:50:36.367Z,27.80
2017-08-15T11:53:03.850Z,28.10
2017-08-15T11:55:31.432Z,28.10
2017-08-15T11:57:59.697Z,28.20
2017-08-15T12:00:27.993Z,28.30
2017-08-15T12:02:55.535Z,28.30
2017-08-15T12:05:23.137Z,28.50
2017-08-15T12:07:50.610Z,28.60
2017-08-15T12:10:18.089Z,28.60
2017-08-15T12:12:45.558Z,28.80
2017-08-15T12:15:13.041Z,28.90
2017-08-15T12:17:41.298Z,28.80
2017-08-15T12:20:08.776Z,28.80
2017-08-15T12:22:36.329Z,29.00
2017-08-15T12:25:04.604Z,29.30
2017-08-15T12:27:32.839Z,29.50
2017-08-15T12:30:00.344Z,29.50
2017-08-15T12:32:28.723Z,29.60
2017-08-15T12:34:56.969Z,29.70
2017-08-15T12:37:24.529Z,29.70
2017-08-15T12:39:52.005Z,29.70
2017-08-15T12:42:20.293Z,29.40
2017-08-15T12:44:48.553Z,29.00
2017-08-15T12:47:16.840Z,27.70
2017-08-15T12:49:45.104Z,26.80
2017-08-15T12:52:13.382Z,26.70
2017-08-15T12:54:40.859Z,26.60
2017-08-15T12:57:09.242Z,26.40
2017-08-15T12:59:36.789Z,26.30
2017-08-15T13:02:05.055Z,25.80
2017-08-15T13:04:33.303Z,25.60
2017-08-15T13:07:00.893Z,25.50
2017-08-15T13:09:29.174Z,25.70
2017-08-15T13:11:57.446Z,25.70
2017-08-15T13:14:25.732Z,26.00
2017-08-15T13:16:53.997Z,26.20
2017-08-15T13:19:22.238Z,26.10
2017-08-15T13:21:49.734Z,26.10
2017-08-15T13:24:18.053Z,26.00
2017-08-15T13:26:45.557Z,25.90
2017-08-15T13:29:13.090Z,25.80
2017-08-15T13:31:40.569Z,25.80
2017-08-15T13:34:08.060Z,25.90
2017-08-15T13:36:35.534Z,26.00
2017-08-15T13:39:03.024Z,25.90
2017-08-15T13:41:30.502Z,25.90
2017-08-15T13:43:58.078Z,26.00
2017-08-15T13:46:26.323Z,26.20
2017-08-15T13:48:53.835Z,26.20
2017-08-15T13:51:21.308Z,26.40
2017-08-15T13:53:48.807Z,26.40
2017-08-15T13:56:16.296Z,26.60
2017-08-15T13:58:44.565Z,26.70
2017-08-15T14:01:12.794Z,26.60
2017-08-15T14:03:40.281Z,26.60
2017-08-15T14:06:07.747Z,26.70
2017-08-15T14:08:35.225Z,26.70
2017-08-15T14:11:02.696Z,26.80
2017-08-15T14:13:30.187Z,26.70
2017-08-15T14:15:57.662Z,26.70
2017-08-15T14:18:25.171Z,26.70
2017-08-15T14:20:52.660Z,26.80
2017-08-15T14:23:20.158Z,26.70
2017-08-15T14:25:48.405Z,26.70
2017-08-15T14:28:15.889Z,26.70
2017-08-15T14:30:43.450Z,26.80
2017-08-15T14:33:11.691Z,26.80
2017-08-15T14:35:39.179Z,26.70
2017-08-15T14:38:07.454Z,26.60
2017-08-15T14:40:34.930Z,26.60
2017-08-15T14:43:03.162Z,26.60
2017-08-15T14:45:30.658Z,26.50
2017-08-15T14:47:58.915Z,26.50
2017-08-15T14:50:33.733Z,26.50
2017-08-15T14:53:01.206Z,26.50
2017-08-15T14:55:28.708Z,26.70
2017-08-15T14:57:56.266Z,26.70
2017-08-15T15:00:23.755Z,26.90
2017-08-15T15:02:51.225Z,27.00
2017-08-15T15:05:18.760Z,27.00
2017-08-15T15:07:46.235Z,27.00
2017-08-15T15:10:13.713Z,26.90
2017-08-15T15:12:41.194Z,26.80
2017-08-15T15:15:08.689Z,26.80
2017-08-15T15:17:36.153Z,26.80
2017-08-15T15:20:03.634Z,26.70
2017-08-15T15:22:31.092Z,26.60
2017-08-15T15:24:58.560Z,26.40
2017-08-15T15:27:26.048Z,26.30
2017-08-15T15:29:53.526Z,26.20
2017-08-15T15:32:21.016Z,26.00
2017-08-15T15:34:48.494Z,25.90
2017-08-15T15:37:16.765Z,25.80
2017-08-15T15:39:44.242Z,25.80
2017-08-15T15:42:12.484Z,25.80
2017-08-15T15:44:39.961Z,25.80
2017-08-15T15:47:08.236Z,25.70
2017-08-15T15:49:35.718Z,25.70
2017-08-15T15:52:03.249Z,25.60
2017-08-15T15:54:30.858Z,25.60
2017-08-15T15:56:58.377Z,25.50
2017-08-15T15:59:26.621Z,25.30
2017-08-15T16:01:54.215Z,25.30
2017-08-15T16:04:22.488Z,25.10
2017-08-15T16:06:51.686Z,24.90
2017-08-15T16:09:19.922Z,24.80
2017-08-15T16:11:47.399Z,24.80
2017-08-15T16:14:14.861Z,24.70
2017-08-15T16:16:42.431Z,24.60
2017-08-15T16:19:10.727Z,24.50
2017-08-15T16:21:38.992Z,24.40
2017-08-15T16:24:07.258Z,24.40
2017-08-15T16:26:35.664Z,24.30
2017-08-15T16:29:03.906Z,24.20
2017-08-15T16:31:31.469Z,24.20
2017-08-15T16:33:58.961Z,24.10
2017-08-15T16:36:26.495Z,24.00
2017-08-15T16:38:54.773Z,23.90
2017-08-15T16:41:23.017Z,23.80
2017-08-15T16:43:50.498Z,23.80
2017-08-15T16:46:17.978Z,23.80
2017-08-15T16:48:46.221Z,23.50
2017-08-15T16:51:13.681Z,23.50
2017-08-15T16:53:41.165Z,23.40
2017-08-15T16:56:09.403Z,23.30
2017-08-15T16:58:36.987Z,23.30
2017-08-15T17:01:04.460Z,23.00
2017-08-15T17:03:32.707Z,22.90
2017-08-15T17:06:00.192Z,22.90
2017-08-15T17:08:28.455Z,22.80
2017-08-15T17:10:56.700Z,22.70
2017-08-15T17:13:24.170Z,22.70
2017-08-15T17:15:51.752Z,22.70
2017-08-15T17:18:20.029Z,22.50
2017-08-15T17:20:48.309Z,22.60
2017-08-15T17:23:15.786Z,22.50
2017-08-15T17:25:43.323Z,22.70
2017-08-15T17:28:11.567Z,22.70
2017-08-15T17:30:39.058Z,22.70
2017-08-15T17:33:07.310Z,22.70
2017-08-15T17:35:34.798Z,22.70
2017-08-15T17:38:03.064Z,22.50
2017-08-15T17:40:31.320Z,22.40
2017-08-15T17:42:58.901Z,22.40
2017-08-15T17:45:27.157Z,22.40
2017-08-15T17:47:54.617Z,22.40
2017-08-15T17:50:22.192Z,22.30
2017-08-15T17:52:50.432Z,22.40
2017-08-15T17:55:18.033Z,22.40
2017-08-15T17:57:48.018Z,22.20
2017-08-15T18:00:15.504Z,22.20
2017-08-15T18:02:43.071Z,22.10
2017-08-15T18:05:11.353Z,22.10
2017-08-15T18:07:39.625Z,22.10
2017-08-15T18:10:07.125Z,22.10
2017-08-15T18:12:34.646Z,22.10
2017-08-15T18:15:03.020Z,21.90
2017-08-15T18:17:31.303Z,21.90
2017-08-15T18:19:58.795Z,21.80
2017-08-15T18:22:26.290Z,21.90
2017-08-15T18:24:53.767Z,22.00
2017-08-15T18:27:25.311Z,21.80
2017-08-15T18:29:53.585Z,21.70
2017-08-15T18:32:21.153Z,21.70
2017-08-15T18:34:49.420Z,21.80
2017-08-15T18:37:17.002Z,21.80
2017-08-15T18:39:45.264Z,21.80
2017-08-15T18:42:13.605Z,21.80
2017-08-15T18:44:47.643Z,21.80
2017-08-15T18:47:15.223Z,21.80
2017-08-15T18:49:42.775Z,21.80
2017-08-15T18:52:11.053Z,21.70
2017-08-15T18:54:39.337Z,21.60
2017-08-15T18:57:07.573Z,21.70
2017-08-15T18:59:35.060Z,21.60
2017-08-15T19:02:03.313Z,21.50
2017-08-15T19:04:30.782Z,21.50
2017-08-15T19:06:58.277Z,21.20
2017-08-15T19:09:25.748Z,21.10
2017-08-15T19:11:53.262Z,21.20
2017-08-15T19:14:20.829Z,21.10
2017-08-15T19:16:49.066Z,21.10
2017-08-15T19:19:16.563Z,21.10
2017-08-15T19:21:44.829Z,21.20
2017-08-15T19:24:12.386Z,21.10
2017-08-15T19:26:39.876Z,21.20
2017-08-15T19:29:14.889Z,21.20
2017-08-15T19:31:43.178Z,21.20
2017-08-15T19:34:11.437Z,21.30
2017-08-15T19:36:38.907Z,21.30
2017-08-15T19:39:07.138Z,21.20
2017-08-15T19:41:34.599Z,21.20
2017-08-15T19:44:02.091Z,21.30
2017-08-15T19:46:30.339Z,21.30
2017-08-15T19:48:57.863Z,21.20
2017-08-15T19:51:25.378Z,21.20
2017-08-15T19:53:53.648Z,21.20
2017-08-15T19:56:21.125Z,21.20
2017-08-15T19:58:49.389Z,21.20
2017-08-15T20:01:17.667Z,21.10
2017-08-15T20:03:45.930Z,21.10
2017-08-15T20:06:13.498Z,21.10
2017-08-15T20:08:41.071Z,21.10
2017-08-15T20:11:09.345Z,21.10
2017-08-15T20:13:37.614Z,21.10
2017-08-15T20:16:05.097Z,21.00
2017-08-15T20:18:32.663Z,21.00
2017-08-15T20:21:00.195Z,21.00
2017-08-15T20:23:28.483Z,20.90
2017-08-15T20:25:56.750Z,20.90
2017-08-15T20:28:24.985Z,20.80
2017-08-15T20:30:52.462Z,20.80
2017-08-15T20:33:20.015Z,20.80
2017-08-15T20:35:47.565Z,20.80
2017-08-15T20:38:15.007Z,20.80
2017-08-15T20:40:42.498Z,20.80
2017-08-15T20:43:09.963Z,20.80
2017-08-15T20:45:38.319Z,20.70
2017-08-15T20:48:05.859Z,20.70
2017-08-15T20:50:33.362Z,20.70
2017-08-15T20:53:00.923Z,20.70
2017-08-15T20:55:28.481Z,20.70
2017-08-15T20:57:56.047Z,20.70
2017-08-15T21:00:24.326Z,20.60
2017-08-15T21:02:52.750Z,20.40
2017-08-15T21:05:20.271Z,20.40
2017-08-15T21:07:48.532Z,20.40
2017-08-15T21:10:16.101Z,20.40
2017-08-15T21:12:44.379Z,20.40
2017-08-15T21:15:11.921Z,20.40
2017-08-15T21:17:39.486Z,20.50
2017-08-15T21:20:06.941Z,20.40
2017-08-15T21:22:34.515Z,20.40
2017-08-15T21:25:02.788Z,20.30
2017-08-15T21:27:31.058Z,20.30
2017-08-15T21:29:58.617Z,20.30
2017-08-15T21:32:26.875Z,20.30
2017-08-15T21:34:54.438Z,20.30
2017-08-15T21:37:21.894Z,20.30
2017-08-15T21:39:49.451Z,20.30
2017-08-15T21:42:17.030Z,20.30
2017-08-15T21:44:44.474Z,20.20
2017-08-15T21:47:11.978Z,20.00
2017-08-15T21:49:39.474Z,19.90
2017-08-15T21:52:07.779Z,19.90
2017-08-15T21:54:36.032Z,20.00
2017-08-15T21:57:03.514Z,20.00
2017-08-15T21:59:31.828Z,20.00
2017-08-15T22:02:15.086Z,20.00
2017-08-15T22:04:42.578Z,20.10
2017-08-15T22:07:10.857Z,20.10
2017-08-15T22:09:39.112Z,20.10
2017-08-15T22:12:06.682Z,20.20
2017-08-15T22:14:34.261Z,20.20
2017-08-15T22:17:02.531Z,20.20
2017-08-15T22:19:30.800Z,20.20
2017-08-15T22:21:58.357Z,20.20
2017-08-15T22:24:25.848Z,20.10
2017-08-15T22:26:53.377Z,20.20
2017-08-15T22:29:21.653Z,20.10
2017-08-15T22:31:49.910Z,20.20
2017-08-15T22:34:17.494Z,20.20
2017-08-15T22:36:45.770Z,20.10
2017-08-15T22:39:13.262Z,20.10
2017-08-15T22:41:40.779Z,20.10
2017-08-15T22:44:08.347Z,20.10
2017-08-15T22:46:36.617Z,20.00
2017-08-15T22:49:04.072Z,20.00
2017-08-15T22:51:32.356Z,19.90
2017-08-15T22:54:01.474Z,19.90
2017-08-15T22:56:29.051Z,19.90
2017-08-15T22:58:56.573Z,19.90
2017-08-15T23:01:24.841Z,19.90
2017-08-15T23:03:52.404Z,19.80
2017-08-15T23:06:20.687Z,19.80
2017-08-15T23:08:48.961Z,19.70
2017-08-15T23:11:17.208Z,19.70
2017-08-15T23:13:44.681Z,19.70
2017-08-15T23:16:12.249Z,19.70
2017-08-15T23:18:39.808Z,19.60
2017-08-15T23:21:08.086Z,19.50
2017-08-15T23:23:36.356Z,19.30
2017-08-15T23:26:03.818Z,19.30
2017-08-15T23:28:32.090Z,19.20
2017-08-15T23:30:59.653Z,19.20
2017-08-15T23:33:27.129Z,19.20
2017-08-15T23:35:55.385Z,19.20
2017-08-15T23:38:22.944Z,19.20
2017-08-15T23:40:50.406Z,19.10
2017-08-15T23:43:17.978Z,19.10
2017-08-15T23:45:46.243Z,19.30
2017-08-15T23:48:14.486Z,19.30
2017-08-15T23:50:41.979Z,19.30
2017-08-15T23:53:10.220Z,19.40
2017-08-15T23:55:37.707Z,19.40
2017-08-15T23:58:05.963Z,19.40
